createdAt,value
2018-08-30T00:02:22.141Z,53.80
2018-08-30T00:04:51.449Z,53.80
2018-08-30T00:07:20.381Z,53.80
2018-08-30T00:09:49.387Z,53.70
2018-08-30T00:12:18.359Z,53.70
2018-08-30T00:14:47.367Z,54.30
2018-08-30T00:17:16.359Z,53.70
2018-08-30T00:19:45.322Z,53.80
2018-08-30T00:22:14.401Z,53.90
2018-08-30T00:24:43.457Z,54.00
2018-08-30T00:27:12.431Z,54.00
2018-08-30T00:29:41.630Z,54.10
2018-08-30T00:32:10.931Z,54.00
2018-08-30T00:34:39.946Z,54.00
2018-08-30T00:37:08.989Z,54.00
2018-08-30T00:39:37.973Z,54.00
2018-08-30T00:42:07.209Z,54.00
2018-08-30T00:44:36.161Z,54.10
2018-08-30T00:47:05.444Z,54.10
2018-08-30T00:49:34.419Z,54.30
2018-08-30T00:52:03.381Z,54.40
2018-08-30T00:54:32.329Z,54.50
2018-08-30T00:57:01.344Z,54.60
2018-08-30T00:59:30.304Z,54.50
2018-08-30T01:01:59.293Z,54.50
2018-08-30T01:04:28.300Z,54.40
2018-08-30T01:06:57.251Z,54.40
2018-08-30T01:09:26.115Z,54.40
2018-08-30T01:11:55.014Z,54.50
2018-08-30T01:14:23.924Z,54.50
2018-08-30T01:16:52.817Z,54.40
2018-08-30T01:19:22.237Z,54.40
2018-08-30T01:21:51.231Z,54.90
2018-08-30T01:24:20.263Z,54.30
2018-08-30T01:26:50.058Z,54.20
2018-08-30T01:29:19.106Z,54.10
2018-08-30T01:31:48.582Z,54.10
2018-08-30T01:34:17.525Z,54.20
2018-08-30T01:36:46.651Z,54.20
2018-08-30T01:39:15.660Z,54.30
2018-08-30T01:41:44.728Z,54.40
2018-08-30T01:44:14.429Z,54.50
2018-08-30T01:46:43.418Z,55.20
2018-08-30T01:49:12.472Z,54.60
2018-08-30T01:51:41.444Z,54.80
2018-08-30T01:54:10.605Z,55.00
2018-08-30T01:56:39.666Z,55.00
2018-08-30T01:59:08.586Z,55.00
2018-08-30T02:01:37.606Z,55.10
2018-08-30T02:04:06.597Z,55.10
2018-08-30T02:06:35.630Z,55.10
2018-08-30T02:09:05.346Z,55.20
2018-08-30T02:11:35.006Z,55.30
2018-08-30T02:14:04.659Z,55.30
2018-08-30T02:16:33.608Z,55.40
2018-08-30T02:19:02.600Z,55.50
2018-08-30T02:21:31.597Z,55.50
2018-08-30T02:24:00.545Z,55.60
2018-08-30T02:26:30.081Z,55.70
2018-08-30T02:28:59.175Z,55.70
2018-08-30T02:31:28.175Z,55.70
2018-08-30T02:33:57.233Z,55.80
2018-08-30T02:36:26.169Z,55.90
2018-08-30T02:38:55.240Z,56.00
2018-08-30T02:41:24.157Z,56.00
2018-08-30T02:43:53.145Z,56.00
2018-08-30T02:46:22.496Z,56.10
2018-08-30T02:48:51.566Z,56.10
2018-08-30T02:51:20.503Z,56.20
2018-08-30T02:53:49.493Z,56.30
2018-08-30T02:56:18.484Z,56.40
2018-08-30T02:58:47.565Z,56.50
2018-08-30T03:01:16.518Z,56.60
2018-08-30T03:03:45.502Z,56.60
2018-08-30T03:06:14.573Z,56.80
2018-08-30T03:08:43.565Z,57.00
2018-08-30T03:11:12.619Z,57.20
2018-08-30T03:13:41.565Z,57.40
2018-08-30T03:16:10.558Z,57.60
2018-08-30T03:18:39.529Z,57.80
2018-08-30T03:21:08.651Z,57.90
2018-08-30T03:23:37.709Z,58.10
2018-08-30T03:26:07.429Z,58.10
2018-08-30T03:28:36.560Z,58.30
2018-08-30T03:31:06.146Z,58.50
2018-08-30T03:33:35.244Z,58.60
2018-08-30T03:36:04.567Z,58.80
2018-08-30T03:38:33.511Z,59.00
2018-08-30T03:41:02.591Z,59.10
2018-08-30T03:43:31.538Z,59.30
2018-08-30T03:46:00.689Z,59.50
2018-08-30T03:48:29.638Z,59.70
2018-08-30T03:50:58.624Z,59.90
2018-08-30T03:53:27.674Z,60.00
2018-08-30T03:55:57.005Z,60.30
2018-08-30T03:58:26.304Z,60.50
2018-08-30T04:00:55.294Z,60.70
2018-08-30T04:03:24.428Z,60.90
2018-08-30T04:05:53.382Z,61.10
2018-08-30T04:08:22.330Z,61.50
2018-08-30T04:10:51.682Z,61.90
2018-08-30T04:13:20.630Z,62.50
2018-08-30T04:15:49.574Z,63.00
2018-08-30T04:18:18.762Z,63.50
2018-08-30T04:20:47.734Z,63.90
2018-08-30T04:23:16.755Z,64.30
2018-08-30T04:25:45.818Z,64.60
2018-08-30T04:28:14.774Z,64.80
2018-08-30T04:30:43.746Z,65.20
2018-08-30T04:33:13.043Z,65.30
2018-08-30T04:35:42.025Z,65.50
2018-08-30T04:38:10.997Z,65.80
2018-08-30T04:40:40.163Z,66.00
2018-08-30T04:43:09.295Z,66.20
2018-08-30T04:45:38.265Z,66.40
2018-08-30T04:48:07.185Z,66.60
2018-08-30T04:50:36.184Z,66.80
2018-08-30T04:53:05.346Z,66.80
2018-08-30T04:55:34.426Z,67.00
2018-08-30T04:58:03.419Z,66.90
2018-08-30T05:00:32.513Z,67.00
2018-08-30T05:03:01.587Z,67.10
2018-08-30T05:05:30.607Z,67.20
2018-08-30T05:07:59.543Z,67.30
2018-08-30T05:10:28.591Z,67.30
2018-08-30T05:12:57.560Z,67.30
2018-08-30T05:15:26.504Z,67.30
2018-08-30T05:17:55.800Z,68.20
2018-08-30T05:20:25.066Z,67.40
2018-08-30T05:22:54.135Z,67.60
2018-08-30T05:25:23.646Z,67.60
2018-08-30T05:27:52.732Z,68.00
2018-08-30T05:30:21.766Z,68.30
2018-08-30T05:32:50.878Z,69.00
2018-08-30T05:35:19.867Z,69.50
2018-08-30T05:37:49.232Z,70.20
2018-08-30T05:40:18.711Z,71.50
2018-08-30T05:42:47.716Z,71.60
2018-08-30T05:45:16.906Z,72.00
2018-08-30T05:47:45.898Z,72.20
2018-08-30T05:50:15.095Z,72.50
2018-08-30T05:52:44.089Z,73.10
2018-08-30T05:55:13.095Z,73.80
2018-08-30T05:57:42.152Z,74.20
2018-08-30T06:00:11.571Z,74.50
2018-08-30T06:02:40.561Z,74.60
2018-08-30T06:05:09.774Z,74.80
2018-08-30T06:07:38.988Z,74.70
2018-08-30T06:10:08.325Z,74.80
2018-08-30T06:12:37.525Z,74.60
2018-08-30T06:15:06.955Z,74.70
2018-08-30T06:17:36.380Z,74.60
2018-08-30T06:20:05.387Z,74.40
2018-08-30T06:22:34.523Z,74.30
2018-08-30T06:25:03.673Z,74.50
2018-08-30T06:27:32.762Z,74.60
2018-08-30T06:30:01.735Z,74.60
2018-08-30T06:32:31.036Z,74.60
2018-08-30T06:35:00.168Z,74.60
2018-08-30T06:37:29.540Z,74.80
2018-08-30T06:39:58.657Z,75.10
2018-08-30T06:42:27.720Z,75.10
2018-08-30T06:44:56.796Z,75.00
2018-08-30T06:47:25.874Z,75.10
2018-08-30T06:49:55.097Z,75.00
2018-08-30T06:52:24.076Z,75.30
2018-08-30T06:54:53.449Z,75.40
2018-08-30T06:57:22.512Z,75.30
2018-08-30T06:59:51.535Z,75.50
2018-08-30T07:02:20.512Z,75.40
2018-08-30T07:04:49.506Z,75.60
2018-08-30T07:07:18.453Z,75.80
2018-08-30T07:09:47.423Z,76.00
2018-08-30T07:12:16.782Z,75.90
2018-08-30T07:14:45.873Z,76.10
2018-08-30T07:17:15.155Z,76.10
2018-08-30T07:19:44.140Z,76.20
2018-08-30T07:22:13.112Z,76.10
2018-08-30T07:24:42.313Z,76.30
2018-08-30T07:27:11.353Z,76.20
2018-08-30T07:29:40.565Z,76.20
2018-08-30T07:32:09.525Z,76.00
2018-08-30T07:34:38.617Z,75.90
2018-08-30T07:37:07.709Z,76.10
2018-08-30T07:39:36.782Z,75.90
2018-08-30T07:42:06.408Z,75.50
2018-08-30T07:44:35.472Z,75.60
2018-08-30T07:47:05.223Z,75.20
2018-08-30T07:49:34.360Z,74.90
2018-08-30T07:52:03.348Z,75.40
2018-08-30T07:54:32.386Z,74.50
2018-08-30T07:57:01.489Z,73.80
2018-08-30T07:59:30.646Z,73.30
2018-08-30T08:01:59.648Z,73.30
2018-08-30T08:04:28.618Z,73.50
2018-08-30T08:06:57.802Z,73.10
2018-08-30T08:09:26.832Z,72.90
2018-08-30T08:11:56.023Z,72.60
2018-08-30T08:14:25.146Z,72.10
2018-08-30T08:16:54.220Z,72.20
2018-08-30T08:19:23.238Z,71.90
2018-08-30T08:21:52.290Z,70.90
2018-08-30T08:24:21.324Z,70.50
2018-08-30T08:26:50.344Z,70.40
2018-08-30T08:29:19.459Z,70.30
2018-08-30T08:31:48.615Z,70.80
2018-08-30T08:34:17.794Z,71.70
2018-08-30T08:36:46.924Z,72.00
2018-08-30T08:39:16.007Z,72.30
2018-08-30T08:41:45.049Z,72.30
2018-08-30T08:44:14.078Z,72.40
2018-08-30T08:46:43.111Z,72.60
2018-08-30T08:49:12.411Z,72.80
2018-08-30T08:51:41.886Z,73.00
2018-08-30T08:54:10.889Z,72.80
2018-08-30T08:56:39.900Z,72.90
2018-08-30T08:59:08.918Z,73.00
2018-08-30T09:01:38.099Z,73.20
2018-08-30T09:04:07.173Z,73.60
2018-08-30T09:06:36.244Z,73.80
2018-08-30T09:09:08.171Z,73.80
2018-08-30T09:11:37.241Z,73.80
2018-08-30T09:14:06.556Z,74.00
2018-08-30T09:16:35.919Z,74.40
2018-08-30T09:19:05.552Z,74.80
2018-08-30T09:21:34.849Z,74.60
2018-08-30T09:24:04.315Z,74.30
2018-08-30T09:26:33.338Z,74.50
2018-08-30T09:29:02.403Z,75.00
2018-08-30T09:31:31.379Z,75.60
2018-08-30T09:34:00.557Z,75.80
2018-08-30T09:36:29.681Z,76.30
2018-08-30T09:38:58.697Z,77.60
2018-08-30T09:41:27.725Z,77.50
2018-08-30T09:43:56.855Z,77.80
2018-08-30T09:46:25.811Z,77.90
2018-08-30T09:48:54.922Z,78.30
2018-08-30T09:51:23.994Z,79.80
2018-08-30T09:53:53.007Z,80.40
2018-08-30T09:56:22.196Z,80.10
2018-08-30T09:58:51.336Z,79.60
2018-08-30T10:01:25.728Z,79.80
2018-08-30T10:03:54.756Z,79.50
2018-08-30T10:06:24.052Z,79.40
2018-08-30T10:08:53.082Z,79.60
2018-08-30T10:11:22.303Z,79.50
2018-08-30T10:13:51.438Z,79.90
2018-08-30T10:16:20.452Z,79.80
2018-08-30T10:18:49.499Z,79.60
2018-08-30T10:21:18.568Z,79.60
2018-08-30T10:23:47.747Z,79.30
2018-08-30T10:26:16.922Z,78.90
2018-08-30T10:28:45.878Z,78.60
2018-08-30T10:31:15.238Z,78.30
2018-08-30T10:33:44.562Z,77.60
2018-08-30T10:36:13.811Z,76.30
2018-08-30T10:38:42.796Z,75.50
2018-08-30T10:41:11.834Z,75.00
2018-08-30T10:43:40.910Z,74.90
2018-08-30T10:46:10.090Z,75.00
2018-08-30T10:48:39.113Z,75.80
2018-08-30T10:51:08.177Z,75.30
2018-08-30T10:53:37.345Z,76.10
2018-08-30T10:56:07.094Z,76.50
2018-08-30T10:58:36.381Z,77.00
2018-08-30T11:01:06.181Z,77.60
2018-08-30T11:03:35.369Z,78.10
2018-08-30T11:06:05.245Z,79.30
2018-08-30T11:08:34.483Z,78.80
2018-08-30T11:11:03.415Z,79.00
2018-08-30T11:13:32.491Z,79.10
2018-08-30T11:16:01.691Z,80.00
2018-08-30T11:18:30.747Z,79.60
2018-08-30T11:21:00.036Z,80.00
2018-08-30T11:23:29.182Z,79.90
2018-08-30T11:25:58.137Z,80.70
2018-08-30T11:28:27.090Z,81.20
2018-08-30T11:30:56.056Z,81.50
2018-08-30T11:33:25.021Z,81.50
2018-08-30T11:35:54.035Z,81.50
2018-08-30T11:38:23.108Z,81.80
2018-08-30T11:40:52.074Z,82.20
2018-08-30T11:43:21.548Z,82.30
2018-08-30T11:45:50.782Z,82.30
2018-08-30T11:48:19.829Z,82.50
2018-08-30T11:50:49.022Z,82.50
2018-08-30T11:53:17.987Z,82.70
2018-08-30T11:55:47.096Z,82.70
2018-08-30T11:58:16.199Z,81.80
2018-08-30T12:00:45.629Z,80.70
2018-08-30T12:03:15.070Z,80.60
2018-08-30T12:05:44.440Z,80.20
2018-08-30T12:08:14.278Z,79.80
2018-08-30T12:10:43.699Z,79.50
2018-08-30T12:13:12.874Z,79.10
2018-08-30T12:15:41.988Z,79.00
2018-08-30T12:18:10.965Z,79.10
2018-08-30T12:20:40.179Z,79.10
2018-08-30T12:23:09.316Z,79.00
2018-08-30T12:25:38.287Z,79.00
2018-08-30T12:28:07.456Z,79.10
2018-08-30T12:30:36.600Z,79.10
2018-08-30T12:33:06.346Z,79.20
2018-08-30T12:35:35.803Z,79.00
2018-08-30T12:38:05.071Z,79.20
2018-08-30T12:40:34.286Z,79.00
2018-08-30T12:43:03.909Z,79.50
2018-08-30T12:45:32.696Z,79.20
2018-08-30T12:48:02.003Z,79.30
2018-08-30T12:50:31.419Z,79.10
2018-08-30T12:53:00.468Z,78.80
2018-08-30T12:55:29.630Z,78.70
2018-08-30T12:57:58.860Z,78.40
2018-08-30T13:00:28.053Z,78.70
2018-08-30T13:02:57.192Z,78.80
2018-08-30T13:05:26.588Z,78.50
2018-08-30T13:07:55.727Z,77.70
2018-08-30T13:10:25.415Z,77.70
2018-08-30T13:12:54.549Z,77.40
2018-08-30T13:15:30.587Z,77.10
2018-08-30T13:17:59.600Z,77.10
2018-08-30T13:20:29.124Z,77.10
2018-08-30T13:22:58.793Z,77.30
2018-08-30T13:25:28.311Z,77.00
2018-08-30T13:27:57.519Z,77.10
2018-08-30T13:30:26.786Z,77.10
2018-08-30T13:32:56.602Z,77.10
2018-08-30T13:35:25.858Z,76.50
2018-08-30T13:37:55.055Z,74.90
2018-08-30T13:40:24.175Z,74.10
2018-08-30T13:42:53.525Z,74.00
2018-08-30T13:45:23.307Z,74.20
2018-08-30T13:47:52.344Z,74.00
2018-08-30T13:50:21.598Z,73.70
2018-08-30T13:52:51.078Z,73.60
2018-08-30T13:55:20.411Z,73.00
2018-08-30T13:57:49.703Z,73.10
2018-08-30T14:00:19.165Z,73.40
2018-08-30T14:02:47.908Z,73.60
2018-08-30T14:05:17.548Z,73.80
2018-08-30T14:07:46.608Z,74.10
2018-08-30T14:10:16.085Z,74.10
2018-08-30T14:12:45.203Z,74.30
2018-08-30T14:15:14.557Z,74.30
2018-08-30T14:17:43.519Z,74.40
2018-08-30T14:20:12.985Z,74.20
2018-08-30T14:22:42.102Z,74.00
2018-08-30T14:25:11.279Z,73.60
2018-08-30T14:27:40.244Z,73.30
2018-08-30T14:30:09.362Z,73.70
2018-08-30T14:32:38.349Z,73.10
2018-08-30T14:35:07.392Z,72.40
2018-08-30T14:37:36.564Z,73.00
2018-08-30T14:40:06.014Z,73.10
2018-08-30T14:42:35.097Z,73.00
2018-08-30T14:45:04.710Z,72.80
2018-08-30T14:47:34.129Z,72.60
2018-08-30T14:50:03.253Z,72.50
2018-08-30T14:52:32.273Z,72.50
2018-08-30T14:55:01.544Z,72.50
2018-08-30T14:57:30.620Z,72.30
2018-08-30T14:59:59.633Z,71.80
2018-08-30T15:02:28.737Z,71.60
2018-08-30T15:04:57.850Z,71.60
2018-08-30T15:07:26.915Z,71.60
2018-08-30T15:09:56.013Z,71.60
2018-08-30T15:12:25.044Z,71.50
2018-08-30T15:14:54.205Z,71.80
2018-08-30T15:17:23.460Z,71.30
2018-08-30T15:19:52.737Z,71.00
2018-08-30T15:22:21.808Z,70.80
2018-08-30T15:24:50.862Z,70.50
2018-08-30T15:27:19.973Z,69.60
2018-08-30T15:29:49.481Z,69.60
2018-08-30T15:32:18.501Z,69.20
2018-08-30T15:34:47.669Z,68.90
2018-08-30T15:37:16.933Z,68.80
2018-08-30T15:39:45.986Z,68.60
2018-08-30T15:42:15.324Z,68.80
2018-08-30T15:44:44.546Z,68.80
2018-08-30T15:47:13.633Z,68.60
2018-08-30T15:49:42.770Z,68.50
2018-08-30T15:52:11.741Z,68.30
2018-08-30T15:54:40.819Z,68.20
2018-08-30T15:57:10.087Z,68.10
2018-08-30T15:59:39.408Z,68.10
2018-08-30T16:02:08.455Z,68.00
2018-08-30T16:04:37.445Z,68.10
2018-08-30T16:07:06.599Z,68.20
2018-08-30T16:09:35.580Z,68.30
2018-08-30T16:12:05.020Z,68.20
2018-08-30T16:14:33.988Z,68.30
2018-08-30T16:17:03.109Z,68.30
2018-08-30T16:19:32.357Z,68.50
2018-08-30T16:22:01.904Z,68.70
2018-08-30T16:24:31.124Z,69.00
2018-08-30T16:27:00.316Z,69.90
2018-08-30T16:29:29.264Z,70.80
2018-08-30T16:31:58.250Z,72.30
2018-08-30T16:34:27.644Z,73.50
2018-08-30T16:36:56.795Z,75.40
2018-08-30T16:39:25.821Z,76.40
2018-08-30T16:41:54.755Z,78.10
2018-08-30T16:44:23.934Z,78.50
2018-08-30T16:46:52.942Z,79.30
2018-08-30T16:49:21.960Z,79.90
2018-08-30T16:51:50.994Z,80.50
2018-08-30T16:54:20.092Z,80.70
2018-08-30T16:56:49.165Z,80.90
2018-08-30T16:59:18.174Z,81.20
2018-08-30T17:01:47.458Z,80.40
2018-08-30T17:04:16.695Z,81.40
2018-08-30T17:06:45.702Z,81.70
2018-08-30T17:09:14.754Z,82.00
2018-08-30T17:11:43.837Z,82.30
2018-08-30T17:14:12.868Z,82.70
2018-08-30T17:16:41.925Z,83.30
2018-08-30T17:19:18.311Z,83.00
2018-08-30T17:21:47.643Z,83.40
2018-08-30T17:24:16.697Z,83.70
2018-08-30T17:26:45.730Z,83.70
2018-08-30T17:29:14.995Z,84.40
2018-08-30T17:31:44.121Z,83.60
2018-08-30T17:34:13.082Z,83.80
2018-08-30T17:36:42.424Z,83.90
2018-08-30T17:39:12.095Z,83.90
2018-08-30T17:41:41.101Z,84.40
2018-08-30T17:44:10.492Z,84.70
2018-08-30T17:46:41.473Z,84.90
2018-08-30T17:49:10.464Z,85.40
2018-08-30T17:51:39.496Z,85.50
2018-08-30T17:54:08.466Z,85.60
2018-08-30T17:56:37.418Z,85.80
2018-08-30T17:59:06.677Z,85.80
2018-08-30T18:01:35.973Z,85.90
2018-08-30T18:04:05.142Z,86.00
2018-08-30T18:06:34.140Z,86.30
2018-08-30T18:09:03.831Z,86.30
2018-08-30T18:11:32.820Z,86.50
2018-08-30T18:14:02.285Z,86.70
2018-08-30T18:16:31.750Z,86.90
2018-08-30T18:19:00.850Z,87.00
2018-08-30T18:21:29.986Z,87.00
2018-08-30T18:23:59.426Z,87.10
2018-08-30T18:26:28.483Z,86.80
2018-08-30T18:28:57.827Z,86.80
2018-08-30T18:31:26.944Z,87.00
2018-08-30T18:33:55.953Z,87.20
2018-08-30T18:36:25.084Z,87.30
2018-08-30T18:38:54.232Z,87.30
2018-08-30T18:41:23.706Z,87.40
2018-08-30T18:43:52.660Z,87.40
2018-08-30T18:46:21.712Z,87.50
2018-08-30T18:48:51.147Z,87.50
2018-08-30T18:51:20.275Z,87.50
2018-08-30T18:53:49.264Z,87.40
2018-08-30T18:56:18.373Z,87.50
2018-08-30T18:58:47.432Z,87.60
2018-08-30T19:01:16.407Z,87.60
2018-08-30T19:03:45.398Z,87.60
2018-08-30T19:06:14.716Z,87.60
2018-08-30T19:08:43.733Z,87.60
2018-08-30T19:11:12.735Z,87.50
2018-08-30T19:13:41.729Z,87.60
2018-08-30T19:16:16.601Z,87.60
2018-08-30T19:18:50.899Z,87.60
2018-08-30T19:21:20.554Z,87.50
2018-08-30T19:23:49.501Z,87.60
2018-08-30T19:26:22.071Z,87.80
2018-08-30T19:28:51.528Z,88.10
2018-08-30T19:31:20.521Z,88.30
2018-08-30T19:33:49.546Z,88.50
2018-08-30T19:36:24.210Z,88.80
2018-08-30T19:38:53.336Z,89.00
2018-08-30T19:41:23.190Z,89.10
2018-08-30T19:43:53.224Z,89.20
2018-08-30T19:46:23.179Z,89.50
2018-08-30T19:48:52.235Z,89.60
2018-08-30T19:51:21.195Z,89.60
2018-08-30T19:53:50.210Z,89.80
2018-08-30T19:56:19.358Z,90.00
2018-08-30T19:58:48.340Z,90.00
2018-08-30T20:01:17.284Z,90.00
2018-08-30T20:03:46.278Z,90.00
2018-08-30T20:06:15.276Z,90.00
2018-08-30T20:08:44.244Z,90.00
2018-08-30T20:11:13.283Z,90.00
2018-08-30T20:13:42.222Z,90.00
2018-08-30T20:16:11.203Z,90.00
2018-08-30T20:18:40.184Z,89.90
2018-08-30T20:21:09.136Z,89.90
2018-08-30T20:23:38.192Z,90.00
2018-08-30T20:26:07.584Z,90.00
2018-08-30T20:28:36.540Z,90.00
2018-08-30T20:31:05.886Z,90.00
2018-08-30T20:33:34.894Z,89.90
2018-08-30T20:36:03.986Z,89.70
2018-08-30T20:38:33.480Z,89.60
2018-08-30T20:41:02.447Z,89.50
2018-08-30T20:43:31.594Z,89.20
2018-08-30T20:46:00.562Z,89.50
2018-08-30T20:48:29.552Z,89.60
2018-08-30T20:50:58.902Z,90.10
2018-08-30T20:53:27.892Z,89.60
2018-08-30T20:55:57.070Z,89.60
2018-08-30T20:58:26.137Z,89.50
2018-08-30T21:00:55.100Z,89.40
2018-08-30T21:03:24.082Z,89.30
2018-08-30T21:05:53.174Z,89.20
2018-08-30T21:08:22.418Z,89.10
2018-08-30T21:10:51.359Z,89.10
2018-08-30T21:13:20.320Z,89.10
2018-08-30T21:15:49.409Z,89.00
2018-08-30T21:18:18.378Z,89.00
2018-08-30T21:20:47.359Z,89.00
2018-08-30T21:23:16.785Z,88.90
2018-08-30T21:25:45.759Z,89.00
2018-08-30T21:28:14.807Z,88.80
2018-08-30T21:30:43.903Z,88.80
2018-08-30T21:33:12.990Z,88.70
2018-08-30T21:35:42.129Z,88.60
2018-08-30T21:38:11.124Z,88.60
2018-08-30T21:40:40.225Z,88.50
2018-08-30T21:43:09.837Z,88.40
2018-08-30T21:45:38.780Z,88.30
2018-08-30T21:48:08.169Z,88.30
2018-08-30T21:50:37.121Z,88.30
2018-08-30T21:53:06.079Z,88.40
2018-08-30T21:55:35.074Z,88.30
2018-08-30T21:58:04.024Z,88.10
2018-08-30T22:00:33.083Z,88.20
2018-08-30T22:03:02.021Z,88.30
2018-08-30T22:05:31.003Z,88.30
2018-08-30T22:08:00.012Z,88.50
2018-08-30T22:10:28.948Z,88.50
2018-08-30T22:12:57.886Z,88.50
2018-08-30T22:15:26.853Z,88.50
2018-08-30T22:17:55.870Z,88.70
2018-08-30T22:20:24.820Z,88.80
2018-08-30T22:22:53.812Z,88.80
2018-08-30T22:25:22.858Z,88.80
2018-08-30T22:27:51.846Z,88.80
2018-08-30T22:30:20.796Z,89.00
2018-08-30T22:32:49.693Z,89.10
2018-08-30T22:35:18.696Z,89.30
2018-08-30T22:37:47.818Z,89.40
2018-08-30T22:40:16.786Z,89.40
2018-08-30T22:42:45.891Z,89.50
2018-08-30T22:45:14.823Z,89.50
2018-08-30T22:47:43.764Z,89.40
2018-08-30T22:50:12.669Z,89.50
2018-08-30T22:52:41.627Z,89.60
2018-08-30T22:55:10.562Z,89.50
2018-08-30T22:57:39.575Z,89.60
2018-08-30T23:00:09.165Z,89.60
2018-08-30T23:02:38.134Z,89.80
2018-08-30T23:05:07.446Z,90.20
2018-08-30T23:07:36.379Z,90.00
2018-08-30T23:10:05.866Z,90.00
2018-08-30T23:12:34.922Z,90.00
2018-08-30T23:15:03.957Z,90.00
2018-08-30T23:17:32.892Z,90.00
2018-08-30T23:20:01.879Z,90.00
2018-08-30T23:22:30.792Z,90.00
2018-08-30T23:24:59.806Z,90.10
2018-08-30T23:27:28.730Z,90.10
2018-08-30T23:29:57.682Z,90.20
2018-08-30T23:32:26.620Z,90.50
2018-08-30T23:34:55.544Z,90.20
2018-08-30T23:37:24.500Z,90.20
2018-08-30T23:39:53.437Z,90.30
2018-08-30T23:42:22.367Z,90.30
2018-08-30T23:44:51.352Z,90.30
2018-08-30T23:47:20.573Z,90.40
2018-08-30T23:49:49.509Z,90.30
2018-08-30T23:52:18.484Z,90.30
2018-08-30T23:54:47.427Z,90.40
2018-08-30T23:57:16.490Z,90.40
2018-08-30T23:59:56.805Z,90.50
